createdAt,value
2018-12-04T00:00:50.340Z,83.22
2018-12-04T00:03:53.664Z,85.00
2018-12-04T00:06:56.892Z,84.87
2018-12-04T00:10:00.141Z,85.37
2018-12-04T00:13:03.368Z,85.54
2018-12-04T00:16:06.609Z,85.83
2018-12-04T00:19:09.860Z,85.50
2018-12-04T00:22:13.138Z,85.62
2018-12-04T00:25:16.465Z,85.26
2018-12-04T00:28:19.701Z,85.07
2018-12-04T00:31:22.942Z,84.02
2018-12-04T00:34:26.247Z,84.16
2018-12-04T00:37:29.497Z,83.46
2018-12-04T00:40:32.725Z,83.81
2018-12-04T00:43:35.986Z,83.33
2018-12-04T00:46:39.354Z,83.87
2018-12-04T00:49:42.765Z,81.31
2018-12-04T00:52:45.977Z,81.11
2018-12-04T00:55:49.315Z,81.43
2018-12-04T00:58:52.658Z,81.91
2018-12-04T01:01:55.884Z,81.24
2018-12-04T01:04:59.146Z,81.22
2018-12-04T01:08:02.416Z,80.57
2018-12-04T01:11:05.725Z,80.83
2018-12-04T01:14:08.956Z,80.75
2018-12-04T01:17:12.191Z,80.22
2018-12-04T01:20:15.458Z,80.68
2018-12-04T01:23:18.770Z,80.59
2018-12-04T01:26:21.993Z,80.51
2018-12-04T01:29:25.262Z,80.76
2018-12-04T01:32:28.477Z,81.23
2018-12-04T01:35:31.752Z,80.60
2018-12-04T01:38:34.973Z,80.36
2018-12-04T01:41:38.248Z,80.06
2018-12-04T01:44:41.467Z,80.62
2018-12-04T01:47:44.713Z,79.32
2018-12-04T01:50:47.943Z,80.08
2018-12-04T01:53:51.321Z,80.70
2018-12-04T01:56:54.657Z,80.91
2018-12-04T01:59:57.929Z,79.89
2018-12-04T02:03:01.168Z,81.03
2018-12-04T02:06:04.474Z,80.22
2018-12-04T02:09:07.871Z,81.02
2018-12-04T02:12:11.216Z,79.84
2018-12-04T02:15:14.495Z,80.48
2018-12-04T02:18:17.812Z,79.22
2018-12-04T02:21:21.065Z,79.35
2018-12-04T02:24:24.291Z,79.90
2018-12-04T02:27:27.530Z,78.82
2018-12-04T02:30:30.797Z,78.32
2018-12-04T02:33:34.034Z,79.06
2018-12-04T02:36:37.271Z,79.66
2018-12-04T02:39:40.604Z,79.74
2018-12-04T02:42:43.923Z,78.84
2018-12-04T02:45:47.192Z,79.83
2018-12-04T02:48:50.428Z,79.15
2018-12-04T02:51:53.662Z,77.91
2018-12-04T02:54:56.907Z,78.86
2018-12-04T02:58:00.231Z,78.97
2018-12-04T03:01:03.467Z,78.81
2018-12-04T03:04:06.731Z,79.40
2018-12-04T03:07:10.089Z,79.25
2018-12-04T03:10:13.409Z,79.41
2018-12-04T03:13:16.686Z,80.42
2018-12-04T03:16:19.921Z,78.29
2018-12-04T03:19:23.237Z,77.41
2018-12-04T03:22:26.508Z,76.87
2018-12-04T03:25:29.750Z,76.23
2018-12-04T03:28:32.979Z,76.22
2018-12-04T03:31:36.211Z,77.21
2018-12-04T03:34:39.571Z,77.43
2018-12-04T03:37:42.804Z,76.60
2018-12-04T03:40:46.097Z,76.61
2018-12-04T03:43:49.340Z,76.04
2018-12-04T03:46:52.589Z,77.15
2018-12-04T03:49:55.896Z,77.39
2018-12-04T03:52:59.201Z,77.36
2018-12-04T03:56:02.500Z,77.79
2018-12-04T03:59:05.801Z,76.18
2018-12-04T04:02:09.152Z,76.57
2018-12-04T04:05:12.385Z,77.47
2018-12-04T04:08:15.621Z,77.17
2018-12-04T04:11:18.944Z,77.01
2018-12-04T04:14:22.181Z,77.54
2018-12-04T04:17:25.421Z,77.68
2018-12-04T04:20:28.774Z,78.04
2018-12-04T04:23:32.063Z,78.06
2018-12-04T04:26:35.325Z,79.33
2018-12-04T04:29:38.553Z,77.94
2018-12-04T04:32:41.794Z,77.52
2018-12-04T04:35:45.020Z,77.66
2018-12-04T04:38:48.253Z,78.12
2018-12-04T04:41:51.500Z,78.05
2018-12-04T04:44:54.765Z,78.33
2018-12-04T04:47:58.100Z,77.73
2018-12-04T04:51:01.369Z,79.25
2018-12-04T04:54:04.661Z,78.97
2018-12-04T04:57:07.901Z,79.15
2018-12-04T05:00:11.166Z,79.54
2018-12-04T05:03:14.485Z,78.85
2018-12-04T05:06:17.722Z,79.30
2018-12-04T05:09:21.054Z,79.30
2018-12-04T05:12:24.293Z,78.58
2018-12-04T05:15:27.572Z,79.86
2018-12-04T05:18:30.894Z,78.37
2018-12-04T05:21:34.122Z,77.93
2018-12-04T05:24:37.366Z,78.50
2018-12-04T05:27:40.607Z,79.52
2018-12-04T05:30:43.841Z,79.32
2018-12-04T05:33:47.084Z,79.49
2018-12-04T05:36:50.402Z,80.97
2018-12-04T05:39:53.726Z,80.41
2018-12-04T05:42:56.969Z,79.39
2018-12-04T05:46:00.196Z,79.23
2018-12-04T05:49:03.430Z,79.10
2018-12-04T05:52:06.674Z,79.43
2018-12-04T05:55:09.902Z,80.06
2018-12-04T05:58:13.173Z,79.83
2018-12-04T06:01:16.475Z,79.98
2018-12-04T06:04:19.776Z,78.73
2018-12-04T06:07:23.006Z,78.54
2018-12-04T06:10:26.264Z,80.28
2018-12-04T06:13:29.565Z,79.42
2018-12-04T06:16:32.794Z,79.29
2018-12-04T06:19:36.033Z,78.98
2018-12-04T06:22:39.272Z,77.85
2018-12-04T06:25:42.586Z,78.75
2018-12-04T06:28:45.820Z,78.40
2018-12-04T06:31:49.117Z,77.61
2018-12-04T06:34:52.426Z,76.82
2018-12-04T06:37:55.735Z,76.97
2018-12-04T06:40:59.004Z,76.65
2018-12-04T06:44:02.230Z,76.48
2018-12-04T06:47:05.505Z,75.74
2018-12-04T06:50:10.704Z,76.55
2018-12-04T06:53:14.028Z,76.59
2018-12-04T06:56:17.337Z,77.58
2018-12-04T06:59:20.569Z,77.49
2018-12-04T07:02:23.836Z,76.97
2018-12-04T07:05:27.088Z,77.77
2018-12-04T07:08:30.399Z,77.47
2018-12-04T07:11:33.624Z,78.32
2018-12-04T07:14:36.899Z,77.85
2018-12-04T07:17:40.174Z,77.57
2018-12-04T07:20:43.404Z,77.82
2018-12-04T07:23:46.643Z,76.32
2018-12-04T07:30:03.547Z,77.92
2018-12-04T07:33:06.925Z,78.12
2018-12-04T07:36:10.144Z,78.87
2018-12-04T07:39:13.423Z,78.53
2018-12-04T07:42:16.761Z,77.88
2018-12-04T07:45:20.105Z,78.04
2018-12-04T07:48:23.349Z,78.11
2018-12-04T07:51:26.585Z,77.85
2018-12-04T07:54:29.892Z,78.43
2018-12-04T07:57:33.132Z,77.64
2018-12-04T08:00:36.508Z,77.76
2018-12-04T08:03:39.722Z,77.94
2018-12-04T08:06:43.081Z,77.41
2018-12-04T08:09:46.372Z,76.99
2018-12-04T08:12:49.621Z,76.75
2018-12-04T08:15:52.930Z,77.27
2018-12-04T08:18:56.289Z,77.81
2018-12-04T08:21:59.599Z,76.80
2018-12-04T08:25:02.960Z,77.76
2018-12-04T08:28:06.284Z,76.36
2018-12-04T08:31:09.525Z,76.01
2018-12-04T08:34:12.902Z,75.81
2018-12-04T08:37:16.186Z,74.89
2018-12-04T08:40:19.549Z,75.10
2018-12-04T08:43:22.780Z,74.89
2018-12-04T08:46:26.120Z,74.23
2018-12-04T08:49:29.387Z,74.30
2018-12-04T08:52:32.693Z,74.43
2018-12-04T08:55:35.935Z,73.92
2018-12-04T08:58:39.244Z,73.70
2018-12-04T09:01:42.537Z,73.70
2018-12-04T09:04:45.823Z,73.00
2018-12-04T09:07:49.132Z,73.41
2018-12-04T09:10:52.443Z,72.84
2018-12-04T09:13:55.656Z,72.79
2018-12-04T09:16:59.039Z,73.75
2018-12-04T09:20:02.334Z,73.67
2018-12-04T09:23:05.588Z,73.72
2018-12-04T09:26:08.884Z,73.43
2018-12-04T09:29:12.275Z,72.06
2018-12-04T09:32:15.638Z,73.00
2018-12-04T09:35:18.905Z,72.84
2018-12-04T09:38:22.128Z,73.23
2018-12-04T09:41:25.414Z,72.69
2018-12-04T09:44:28.640Z,72.02
2018-12-04T09:47:31.902Z,71.47
2018-12-04T09:50:35.148Z,69.80
2018-12-04T09:53:38.479Z,70.87
2018-12-04T09:56:41.689Z,70.40
2018-12-04T09:59:44.913Z,70.44
2018-12-04T10:02:48.144Z,70.62
2018-12-04T10:05:51.413Z,69.88
2018-12-04T10:08:54.649Z,70.36
2018-12-04T10:11:57.989Z,70.84
2018-12-04T10:15:01.222Z,70.63
2018-12-04T10:18:04.589Z,71.78
2018-12-04T10:21:07.866Z,70.03
2018-12-04T10:24:11.112Z,70.02
2018-12-04T10:27:14.340Z,71.45
2018-12-04T10:30:17.660Z,70.98
2018-12-04T10:33:20.882Z,70.52
2018-12-04T10:36:24.105Z,70.62
2018-12-04T10:39:27.338Z,72.09
2018-12-04T10:42:30.571Z,72.91
2018-12-04T10:45:33.936Z,72.47
2018-12-04T10:48:37.180Z,71.82
2018-12-04T10:51:40.530Z,72.76
2018-12-04T10:54:43.744Z,74.31
2018-12-04T10:57:47.005Z,74.32
2018-12-04T11:00:55.031Z,74.38
2018-12-04T11:03:58.427Z,74.80
2018-12-04T11:07:01.632Z,75.33
2018-12-04T11:10:05.431Z,75.40
2018-12-04T11:13:08.632Z,75.25
2018-12-04T11:16:11.927Z,75.69
2018-12-04T11:19:15.269Z,74.33
2018-12-04T11:22:18.517Z,74.29
2018-12-04T11:25:21.750Z,74.37
2018-12-04T11:28:25.057Z,73.55
2018-12-04T11:31:28.281Z,74.53
2018-12-04T11:34:31.587Z,74.77
2018-12-04T11:37:34.808Z,75.47
2018-12-04T11:40:38.040Z,76.49
2018-12-04T11:43:41.261Z,76.43
2018-12-04T11:46:44.518Z,73.02
2018-12-04T11:49:47.885Z,72.38
2018-12-04T11:52:51.125Z,73.33
2018-12-04T11:55:54.482Z,73.31
2018-12-04T11:58:57.919Z,74.55
2018-12-04T12:02:01.586Z,75.30
2018-12-04T12:05:05.224Z,76.62
2018-12-04T12:08:08.492Z,78.05
2018-12-04T12:11:11.721Z,77.90
2018-12-04T12:14:14.978Z,79.13
2018-12-04T12:17:18.180Z,78.83
2018-12-04T12:20:21.472Z,79.40
2018-12-04T12:23:24.673Z,80.25
2018-12-04T12:26:27.901Z,80.41
2018-12-04T12:29:31.113Z,80.46
2018-12-04T12:32:34.337Z,81.02
2018-12-04T12:35:37.572Z,81.09
2018-12-04T12:38:40.789Z,80.68
2018-12-04T12:41:44.042Z,81.23
2018-12-04T12:44:47.343Z,82.14
2018-12-04T12:47:50.564Z,81.93
2018-12-04T12:50:53.788Z,82.10
2018-12-04T12:53:57.024Z,79.51
2018-12-04T12:57:00.230Z,80.01
2018-12-04T13:00:04.933Z,78.52
2018-12-04T13:03:08.156Z,78.38
2018-12-04T13:06:11.471Z,78.74
2018-12-04T13:09:14.778Z,78.66
2018-12-04T13:12:18.113Z,78.48
2018-12-04T13:15:21.434Z,77.87
2018-12-04T13:18:24.855Z,76.76
2018-12-04T13:21:28.167Z,76.68
2018-12-04T13:24:31.462Z,78.03
2018-12-04T13:27:34.706Z,79.56
2018-12-04T13:30:38.020Z,78.57
2018-12-04T13:33:41.352Z,79.61
2018-12-04T13:36:44.583Z,79.78
2018-12-04T13:39:47.905Z,80.57
2018-12-04T13:42:51.201Z,79.09
2018-12-04T13:45:54.496Z,79.58
2018-12-04T13:48:57.794Z,79.89
2018-12-04T13:52:01.023Z,80.83
2018-12-04T13:55:04.793Z,79.19
2018-12-04T13:58:08.123Z,79.14
2018-12-04T14:01:11.526Z,78.71
2018-12-04T14:04:17.138Z,78.89
2018-12-04T14:07:20.064Z,79.20
2018-12-04T14:10:23.361Z,78.77
2018-12-04T14:13:26.590Z,78.96
2018-12-04T14:16:29.938Z,79.43
2018-12-04T14:19:34.166Z,78.89
2018-12-04T14:22:37.584Z,78.70
2018-12-04T14:25:40.974Z,79.11
2018-12-04T14:28:44.290Z,79.27
2018-12-04T14:31:47.568Z,78.92
2018-12-04T14:34:50.810Z,80.13
2018-12-04T14:37:54.161Z,79.61
2018-12-04T14:40:57.543Z,79.10
2018-12-04T14:44:00.828Z,78.74
2018-12-04T14:47:04.177Z,78.97
2018-12-04T14:50:08.518Z,78.67
2018-12-04T14:53:11.771Z,78.85
2018-12-04T14:56:15.109Z,78.96
2018-12-04T14:59:18.428Z,78.73
2018-12-04T15:02:21.809Z,78.20
2018-12-04T15:05:25.137Z,78.45
2018-12-04T15:08:28.441Z,78.11
2018-12-04T15:11:31.698Z,77.80
2018-12-04T15:14:34.992Z,78.71
2018-12-04T15:17:38.237Z,79.37
2018-12-04T15:20:41.550Z,79.70
2018-12-04T15:23:44.831Z,80.48
2018-12-04T15:26:48.053Z,81.48
2018-12-04T15:29:51.312Z,81.87
2018-12-04T15:32:54.643Z,81.61
2018-12-04T15:35:57.936Z,82.05
2018-12-04T15:39:01.277Z,82.38
2018-12-04T15:42:04.711Z,81.30
2018-12-04T15:45:08.205Z,80.02
2018-12-04T15:48:11.541Z,81.12
2018-12-04T15:51:14.915Z,80.66
2018-12-04T15:54:18.192Z,81.30
2018-12-04T15:57:21.622Z,81.96
2018-12-04T16:00:24.917Z,81.88
2018-12-04T16:03:28.148Z,81.94
2018-12-04T16:06:31.361Z,82.09
2018-12-04T16:09:34.638Z,82.11
2018-12-04T16:12:37.878Z,82.46
2018-12-04T16:15:41.301Z,82.44
2018-12-04T16:18:44.537Z,82.62
2018-12-04T16:21:47.788Z,83.07
2018-12-04T16:24:51.010Z,83.37
2018-12-04T16:27:54.534Z,82.84
2018-12-04T16:30:57.913Z,83.11
2018-12-04T16:34:01.142Z,82.71
2018-12-04T16:37:04.452Z,82.70
2018-12-04T16:40:07.848Z,82.44
2018-12-04T16:43:11.085Z,82.81
2018-12-04T16:46:14.314Z,82.52
2018-12-04T16:49:17.596Z,82.17
2018-12-04T16:52:20.847Z,82.25
2018-12-04T16:55:24.134Z,82.39
2018-12-04T16:58:27.367Z,82.71
2018-12-04T17:01:30.596Z,83.38
2018-12-04T17:04:33.942Z,83.05
2018-12-04T17:07:37.284Z,82.27
2018-12-04T17:10:40.504Z,82.23
2018-12-04T17:13:43.759Z,82.56
2018-12-04T17:16:47.026Z,82.61
2018-12-04T17:19:50.228Z,83.32
2018-12-04T17:22:53.485Z,83.63
2018-12-04T17:25:56.704Z,83.08
2018-12-04T17:28:59.925Z,83.77
2018-12-04T17:32:03.280Z,82.94
2018-12-04T17:35:06.518Z,82.97
2018-12-04T17:38:09.745Z,83.61
2018-12-04T17:41:12.995Z,84.07
2018-12-04T17:44:16.199Z,83.47
2018-12-04T17:47:19.486Z,82.38
2018-12-04T17:50:22.721Z,82.11
2018-12-04T17:53:26.117Z,82.67
2018-12-04T17:56:29.346Z,82.50
2018-12-04T17:59:32.649Z,83.44
2018-12-04T18:02:35.884Z,83.87
2018-12-04T18:05:39.162Z,83.76
2018-12-04T18:08:42.463Z,83.59
2018-12-04T18:11:45.666Z,83.75
2018-12-04T18:14:48.921Z,82.97
2018-12-04T18:17:52.545Z,81.56
2018-12-04T18:20:56.325Z,82.72
2018-12-04T18:24:00.052Z,82.65
2018-12-04T18:27:03.288Z,82.26
2018-12-04T18:30:07.760Z,81.63
2018-12-04T18:33:11.002Z,81.78
2018-12-04T18:36:14.245Z,82.09
2018-12-04T18:39:17.473Z,82.73
2018-12-04T18:42:20.841Z,83.82
2018-12-04T18:45:24.161Z,82.96
2018-12-04T18:48:27.773Z,83.36
2018-12-04T18:51:31.219Z,82.95
2018-12-04T18:54:34.977Z,83.27
2018-12-04T18:57:38.249Z,83.53
2018-12-04T19:00:42.200Z,83.91
2018-12-04T19:03:45.525Z,83.25
2018-12-04T19:06:48.816Z,82.89
2018-12-04T19:09:52.161Z,83.24
2018-12-04T19:12:55.600Z,83.84
2018-12-04T19:15:59.296Z,83.44
2018-12-04T19:19:03.381Z,81.54
2018-12-04T19:22:06.802Z,80.06
2018-12-04T19:25:10.642Z,79.81
2018-12-04T19:28:14.452Z,80.56
2018-12-04T19:31:17.678Z,79.30
2018-12-04T19:34:20.925Z,79.03
2018-12-04T19:37:25.224Z,78.21
2018-12-04T19:40:28.739Z,80.05
2018-12-04T19:43:32.317Z,79.40
2018-12-04T19:46:35.655Z,78.06
2018-12-04T19:49:38.965Z,78.58
2018-12-04T19:52:42.285Z,78.67
2018-12-04T19:55:45.807Z,79.11
2018-12-04T19:58:49.377Z,79.67
2018-12-04T20:01:52.783Z,80.07
2018-12-04T20:04:58.757Z,80.82
2018-12-04T20:08:10.409Z,80.85
2018-12-04T20:11:20.446Z,79.41
2018-12-04T20:14:32.257Z,80.46
2018-12-04T20:17:42.329Z,80.78
2018-12-04T20:20:45.589Z,81.33
2018-12-04T20:23:48.947Z,81.74
2018-12-04T20:26:52.480Z,81.86
2018-12-04T20:29:55.773Z,82.07
2018-12-04T20:32:59.991Z,81.53
2018-12-04T20:36:04.188Z,81.06
2018-12-04T20:39:07.779Z,81.75
2018-12-04T20:42:11.603Z,83.82
2018-12-04T20:45:15.575Z,85.51
2018-12-04T20:48:20.084Z,83.96
2018-12-04T20:51:23.359Z,82.21
2018-12-04T20:54:26.739Z,81.72
2018-12-04T20:57:30.257Z,82.78
2018-12-04T21:00:33.619Z,82.93
2018-12-04T21:03:37.358Z,83.83
2018-12-04T21:06:40.621Z,83.31
2018-12-04T21:09:43.972Z,83.39
2018-12-04T21:12:47.530Z,82.78
2018-12-04T21:15:51.050Z,83.40
2018-12-04T21:18:54.261Z,82.94
2018-12-04T21:21:58.023Z,83.83
2018-12-04T21:25:01.592Z,81.43
2018-12-04T21:28:10.613Z,81.30
2018-12-04T21:31:19.670Z,81.83
2018-12-04T21:34:28.601Z,80.53
2018-12-04T21:37:37.420Z,80.55
2018-12-04T21:40:46.136Z,81.88
2018-12-04T21:43:54.789Z,82.76
2018-12-04T21:47:03.445Z,81.92
2018-12-04T21:50:07.127Z,82.03
2018-12-04T21:53:10.370Z,82.38
2018-12-04T21:56:13.693Z,82.86
2018-12-04T21:59:16.913Z,82.69
2018-12-04T22:02:20.133Z,83.09
2018-12-04T22:05:23.383Z,83.15
2018-12-04T22:08:26.688Z,83.26
2018-12-04T22:11:29.932Z,83.23
2018-12-04T22:14:33.153Z,82.53
2018-12-04T22:17:36.553Z,81.74
2018-12-04T22:20:39.978Z,82.48
2018-12-04T22:23:43.204Z,83.04
2018-12-04T22:26:46.563Z,82.90
2018-12-04T22:29:50.160Z,82.77
2018-12-04T22:32:53.411Z,81.94
2018-12-04T22:35:56.696Z,84.01
2018-12-04T22:38:59.953Z,84.25
2018-12-04T22:42:03.185Z,84.33
2018-12-04T22:48:36.122Z,83.76
2018-12-04T22:51:39.373Z,82.97
2018-12-04T22:54:42.669Z,83.22
2018-12-04T22:57:45.915Z,83.22
2018-12-04T23:00:50.005Z,83.20
2018-12-04T23:03:53.240Z,82.81
2018-12-04T23:06:56.563Z,83.33
2018-12-04T23:09:59.809Z,83.23
2018-12-04T23:13:03.086Z,83.21
2018-12-04T23:16:06.340Z,83.50
2018-12-04T23:19:09.650Z,83.31
2018-12-04T23:22:12.952Z,84.26
2018-12-04T23:25:16.256Z,85.65
2018-12-04T23:28:19.519Z,86.78
2018-12-04T23:31:22.767Z,86.62
2018-12-04T23:34:25.988Z,85.78
2018-12-04T23:37:29.237Z,84.50
2018-12-04T23:40:32.494Z,84.57
2018-12-04T23:43:35.775Z,83.94
2018-12-04T23:46:39.007Z,83.79
2018-12-04T23:49:42.318Z,84.33
2018-12-04T23:52:45.560Z,84.95
2018-12-04T23:55:48.933Z,84.65
2018-12-04T23:58:52.184Z,85.66
